| time (UTC) | temp C | wind direction | speed KPH | gust KPH | rain 1hr cm | rain 24hr cm | rain mn cm | humidity % | barometer mb |
| 20260508014518 | 10 | 248 | 3.2 | 6.4 | 0.00 | 0.00 | 0.00 | 91 | 1013.0 |
| 20260508013518 | 10 | 270 | 3.2 | 6.4 | 0.00 | 0.00 | 0.00 | 91 | 1013.0 |
| 20260508012517 | 10 | 293 | 3.2 | 9.7 | 0.00 | 0.00 | 0.00 | 90 | 1013.1 |
| 20260508011517 | 10 | 293 | 3.2 | 6.4 | 0.00 | 0.00 | 0.00 | 89 | 1013.3 |
| 20260508010518 | 11 | 315 | 1.6 | 4.8 | 0.00 | 0.00 | 0.00 | 89 | 1013.4 |
| 20260508005518 | 11 | 293 | 3.2 | 4.8 | 0.00 | 0.00 | 0.00 | 89 | 1013.5 |
| 20260508004518 | 11 | 293 | 4.8 | 11.3 | 0.00 | 0.00 | 0.00 | 90 | 1013.5 |
| 20260508003518 | 11 | 248 | 3.2 | 6.4 | 0.00 | 0.00 | 0.00 | 90 | 1013.5 |
| 20260508002518 | 11 | 293 | 1.6 | 6.4 | 0.00 | 0.00 | 0.00 | 90 | 1013.6 |
| 20260508001517 | 11 | 293 | 3.2 | 6.4 | 0.00 | 0.00 | 0.00 | 89 | 1013.6 |
| 20260508000537 | 11 | 293 | 4.8 | 6.4 | 0.00 | 0.00 | 0.00 | 89 | 1013.6 |
| 20260507235517 | 11 | 315 | 3.2 | 6.4 | 0.00 | 0.00 | 0.00 | 89 | 1013.8 |
| 20260507234516 | 11 | 293 | 3.2 | 4.8 | 0.00 | 0.00 | 0.00 | 89 | 1013.8 |
| 20260507233516 | 11 | 293 | 1.6 | 4.8 | 0.00 | 0.00 | 0.00 | 88 | 1013.9 |
| 20260507232516 | 11 | 315 | 3.2 | 4.8 | 0.00 | 0.00 | 0.00 | 89 | 1014.0 |
| 20260507231538 | 11 | 293 | 3.2 | 6.4 | 0.00 | 0.00 | 0.00 | 88 | 1014.1 |
| 20260507230538 | 11 | 293 | 3.2 | 4.8 | 0.00 | 0.00 | 0.00 | 87 | 1014.2 |
| 20260507225518 | 12 | 315 | 1.6 | 6.4 | 0.00 | 0.00 | 0.00 | 87 | 1014.1 |
| 20260507224516 | 12 | 293 | 3.2 | 6.4 | 0.00 | 0.00 | 0.00 | 86 | 1014.1 |
| 20260507223518 | 12 | 338 | 3.2 | 6.4 | 0.00 | 0.00 | 0.00 | 86 | 1014.4 |
| 20260507222538 | 12 | 270 | 3.2 | 4.8 | 0.00 | 0.00 | 0.00 | 85 | 1014.3 |
| 20260507221538 | 13 | 248 | 1.6 | 3.2 | 0.00 | 0.00 | 0.00 | 84 | 1014.2 |
| 20260507220518 | 13 | 293 | 1.6 | 3.2 | 0.00 | 0.00 | 0.00 | 82 | 1014.2 |
| 20260507215559 | 13 | 0.0 | 3.2 | 0.00 | 0.00 | 0.00 | 82 | 1014.3 | |
| 20260507214538 | 14 | 0.0 | 1.6 | 0.00 | 0.00 | 0.00 | 82 | 1014.4 | |
| 20260507213538 | 14 | 135 | 1.6 | 3.2 | 0.00 | 0.00 | 0.00 | 81 | 1014.3 |
| 20260507212519 | 14 | 135 | 1.6 | 3.2 | 0.00 | 0.00 | 0.00 | 80 | 1014.2 |
| 20260507211518 | 15 | 113 | 1.6 | 4.8 | 0.00 | 0.00 | 0.00 | 80 | 1014.3 |
| 20260507210518 | 15 | 135 | 4.8 | 6.4 | 0.00 | 0.00 | 0.00 | 80 | 1014.2 |
| 20260507205539 | 15 | 135 | 4.8 | 11.3 | 0.00 | 0.00 | 0.00 | 79 | 1014.0 |
| 20260507204518 | 15 | 135 | 4.8 | 9.7 | 0.00 | 0.00 | 0.00 | 79 | 1014.0 |
| 20260507203518 | 15 | 135 | 6.4 | 12.9 | 0.00 | 0.00 | 0.00 | 78 | 1014.0 |
| 20260507202518 | 15 | 113 | 4.8 | 9.7 | 0.00 | 0.00 | 0.00 | 78 | 1013.7 |
| 20260507201518 | 15 | 135 | 4.8 | 8.0 | 0.00 | 0.00 | 0.00 | 78 | 1013.7 |
| 20260507200559 | 15 | 135 | 9.7 | 17.7 | 0.00 | 0.00 | 0.00 | 78 | 1013.7 |
| 20260507195518 | 15 | 135 | 6.4 | 12.9 | 0.00 | 0.00 | 0.00 | 77 | 1013.3 |
| 20260507194518 | 15 | 135 | 6.4 | 11.3 | 0.00 | 0.00 | 0.00 | 77 | 1013.0 |
| 20260507193558 | 16 | 135 | 6.4 | 12.9 | 0.00 | 0.00 | 0.00 | 76 | 1013.0 |
| 20260507192518 | 16 | 135 | 9.7 | 14.5 | 0.00 | 0.00 | 0.00 | 75 | 1012.7 |
| 20260507191517 | 16 | 135 | 9.7 | 16.1 | 0.00 | 0.00 | 0.00 | 75 | 1012.5 |
| 20260507190537 | 16 | 135 | 12.9 | 19.3 | 0.00 | 0.00 | 0.00 | 74 | 1012.5 |
| 20260507185518 | 16 | 135 | 12.9 | 20.9 | 0.00 | 0.00 | 0.00 | 74 | 1012.4 |
| 20260507184518 | 16 | 135 | 8.0 | 16.1 | 0.00 | 0.00 | 0.00 | 73 | 1012.1 |
| 20260507183517 | 16 | 135 | 8.0 | 14.5 | 0.00 | 0.00 | 0.00 | 73 | 1012.0 |
| 20260507182538 | 17 | 158 | 11.3 | 20.9 | 0.00 | 0.00 | 0.00 | 72 | 1011.7 |
| 20260507181517 | 17 | 135 | 6.4 | 17.7 | 0.00 | 0.00 | 0.00 | 71 | 1011.5 |
| 20260507180517 | 17 | 113 | 9.7 | 19.3 | 0.00 | 0.00 | 0.00 | 71 | 1011.4 |
| 20260507175517 | 17 | 135 | 12.9 | 22.5 | 0.00 | 0.00 | 0.00 | 70 | 1011.2 |
| 20260507174518 | 17 | 135 | 11.3 | 16.1 | 0.00 | 0.00 | 0.00 | 69 | 1011.2 |
| 20260507173518 | 17 | 135 | 12.9 | 22.5 | 0.00 | 0.00 | 0.00 | 69 | 1011.1 |
| 20260507172517 | 17 | 135 | 11.3 | 24.1 | 0.00 | 0.00 | 0.00 | 69 | 1011.0 |
| 20260507171517 | 18 | 135 | 14.5 | 22.5 | 0.00 | 0.00 | 0.00 | 67 | 1010.9 |
| 20260507170517 | 18 | 135 | 12.9 | 19.3 | 0.00 | 0.00 | 0.00 | 67 | 1010.8 |
| 20260507165517 | 18 | 113 | 11.3 | 19.3 | 0.00 | 0.00 | 0.00 | 66 | 1010.8 |
| 20260507164517 | 18 | 135 | 9.7 | 19.3 | 0.00 | 0.00 | 0.00 | 66 | 1010.8 |
| 20260507163517 | 18 | 135 | 12.9 | 24.1 | 0.00 | 0.00 | 0.00 | 65 | 1010.7 |
| 20260507162517 | 18 | 135 | 14.5 | 22.5 | 0.00 | 0.00 | 0.00 | 65 | 1010.7 |
| 20260507161518 | 18 | 113 | 12.9 | 22.5 | 0.00 | 0.00 | 0.00 | 66 | 1010.6 |
| 20260507160517 | 18 | 135 | 17.7 | 27.4 | 0.00 | 0.00 | 0.00 | 66 | 1010.4 |
| 20260507155517 | 18 | 135 | 16.1 | 25.7 | 0.00 | 0.00 | 0.00 | 65 | 1010.4 |
| 20260507154517 | 19 | 90 | 12.9 | 22.5 | 0.00 | 0.00 | 0.00 | 65 | 1010.6 |
| 20260507153517 | 19 | 113 | 12.9 | 22.5 | 0.00 | 0.00 | 0.00 | 65 | 1010.6 |
| 20260507152517 | 20 | 135 | 9.7 | 20.9 | 0.00 | 0.00 | 0.00 | 64 | 1010.6 |
| 20260507151518 | 20 | 135 | 16.1 | 27.4 | 0.00 | 0.00 | 0.00 | 60 | 1010.6 |
| 20260507150517 | 20 | 135 | 12.9 | 25.7 | 0.00 | 0.00 | 0.00 | 58 | 1010.9 |
| 20260507145517 | 20 | 180 | 16.1 | 27.4 | 0.00 | 0.00 | 0.00 | 61 | 1010.9 |
| 20260507144517 | 19 | 135 | 12.9 | 27.4 | 0.00 | 0.00 | 0.00 | 63 | 1010.8 |
| 20260507143517 | 19 | 158 | 14.5 | 25.7 | 0.00 | 0.00 | 0.00 | 63 | 1011.0 |
| 20260507142537 | 19 | 135 | 12.9 | 20.9 | 0.00 | 0.00 | 0.00 | 65 | 1011.1 |
| 20260507141517 | 20 | 158 | 11.3 | 20.9 | 0.00 | 0.00 | 0.00 | 63 | 1011.3 |
| 20260507140517 | 20 | 180 | 14.5 | 22.5 | 0.00 | 0.00 | 0.00 | 60 | 1011.4 |
| 20260507135517 | 21 | 180 | 17.7 | 29.0 | 0.00 | 0.00 | 0.00 | 59 | 1011.5 |
| 20260507134558 | 21 | 180 | 9.7 | 17.7 | 0.00 | 0.00 | 0.00 | 59 | 1011.6 |
| 20260507133517 | 21 | 180 | 16.1 | 29.0 | 0.00 | 0.00 | 0.00 | 59 | 1011.6 |
| 20260507132517 | 21 | 180 | 12.9 | 24.1 | 0.00 | 0.00 | 0.00 | 62 | 1011.7 |
| 20260507131517 | 21 | 203 | 12.9 | 20.9 | 0.00 | 0.00 | 0.00 | 62 | 1011.8 |
| 20260507130517 | 21 | 180 | 16.1 | 32.2 | 0.00 | 0.00 | 0.00 | 63 | 1012.1 |
| 20260507125537 | 20 | 158 | 24.1 | 45.1 | 0.00 | 0.00 | 0.00 | 63 | 1012.0 |
| 20260507124517 | 20 | 180 | 16.1 | 30.6 | 0.00 | 0.00 | 0.00 | 60 | 1012.0 |
| 20260507123517 | 20 | 180 | 12.9 | 24.1 | 0.00 | 0.00 | 0.00 | 58 | 1012.0 |
| 20260507122537 | 20 | 180 | 8.0 | 16.1 | 0.00 | 0.00 | 0.00 | 55 | 1012.0 |
| 20260507121516 | 21 | 225 | 4.8 | 11.3 | 0.00 | 0.00 | 0.00 | 52 | 1012.3 |
| 20260507120516 | 21 | 135 | 6.4 | 24.1 | 0.00 | 0.00 | 0.00 | 52 | 1012.4 |
| 20260507115517 | 21 | 180 | 8.0 | 19.3 | 0.00 | 0.00 | 0.00 | 52 | 1012.3 |
| 20260507114517 | 21 | 180 | 9.7 | 17.7 | 0.00 | 0.00 | 0.00 | 53 | 1012.4 |
| 20260507113517 | 21 | 158 | 4.8 | 12.9 | 0.00 | 0.00 | 0.00 | 53 | 1012.5 |
| 20260507112517 | 20 | 135 | 6.4 | 12.9 | 0.00 | 0.00 | 0.00 | 54 | 1012.7 |
| 20260507111517 | 20 | 158 | 9.7 | 16.1 | 0.00 | 0.00 | 0.00 | 54 | 1012.9 |
| 20260507110517 | 20 | 180 | 6.4 | 14.5 | 0.00 | 0.00 | 0.00 | 56 | 1013.0 |
| 20260507105516 | 20 | 45 | 6.4 | 14.5 | 0.00 | 0.00 | 0.00 | 55 | 1013.1 |
| 20260507104516 | 20 | 135 | 4.8 | 14.5 | 0.00 | 0.00 | 0.00 | 58 | 1013.2 |
| 20260507103637 | 20 | 68 | 9.7 | 16.1 | 0.00 | 0.00 | 0.00 | 59 | 1013.4 |
| 20260507102517 | 19 | 113 | 8.0 | 16.1 | 0.00 | 0.00 | 0.00 | 61 | 1013.6 |
| 20260507101517 | 18 | 90 | 6.4 | 14.5 | 0.00 | 0.00 | 0.00 | 62 | 1013.6 |
| 20260507100516 | 18 | 135 | 6.4 | 16.1 | 0.00 | 0.00 | 0.00 | 63 | 1013.7 |
| 20260507095517 | 18 | 68 | 9.7 | 17.7 | 0.00 | 0.00 | 0.00 | 64 | 1014.0 |
| 20260507094517 | 18 | 90 | 6.4 | 12.9 | 0.00 | 0.00 | 0.00 | 65 | 1013.9 |
| 20260507093516 | 18 | 90 | 6.4 | 14.5 | 0.00 | 0.00 | 0.00 | 66 | 1014.0 |
| 20260507092517 | 17 | 158 | 4.8 | 12.9 | 0.00 | 0.00 | 0.00 | 68 | 1014.2 |
| 20260507091516 | 17 | 158 | 4.8 | 12.9 | 0.00 | 0.00 | 0.00 | 67 | 1014.1 |
| 20260507090516 | 17 | 45 | 4.8 | 14.5 | 0.00 | 0.00 | 0.00 | 68 | 1014.0 |
| 20260507085516 | 17 | 135 | 4.8 | 11.3 | 0.00 | 0.00 | 0.00 | 70 | 1014.0 |
| 20260507084517 | 17 | 45 | 4.8 | 11.3 | 0.00 | 0.00 | 0.00 | 71 | 1013.9 |
| 20260507083516 | 17 | 68 | 6.4 | 12.9 | 0.00 | 0.00 | 0.00 | 71 | 1014.1 |
| 20260507082516 | 16 | 113 | 4.8 | 11.3 | 0.00 | 0.00 | 0.00 | 71 | 1014.2 |
| 20260507081536 | 16 | 23 | 1.6 | 6.4 | 0.00 | 0.00 | 0.00 | 72 | 1014.1 |
| 20260507080516 | 16 | 135 | 3.2 | 6.4 | 0.00 | 0.00 | 0.00 | 71 | 1014.2 |
| 20260507075536 | 16 | 23 | 3.2 | 6.4 | 0.00 | 0.00 | 0.00 | 71 | 1014.3 |
| 20260507074518 | 15 | 68 | 3.2 | 4.8 | 0.00 | 0.00 | 0.00 | 72 | 1014.4 |
| 20260507073519 | 15 | 90 | 3.2 | 4.8 | 0.00 | 0.00 | 0.00 | 74 | 1014.4 |
| 20260507072518 | 13 | 45 | 3.2 | 4.8 | 0.00 | 0.00 | 0.00 | 77 | 1014.4 |
| 20260507071518 | 13 | 45 | 1.6 | 4.8 | 0.00 | 0.00 | 0.00 | 78 | 1014.4 |
| 20260507070518 | 12 | 0 | 1.6 | 3.2 | 0.00 | 0.00 | 0.00 | 79 | 1014.3 |
| 20260507065518 | 12 | 23 | 3.2 | 4.8 | 0.00 | 0.00 | 0.00 | 81 | 1014.4 |
| 20260507064518 | 11 | 0.0 | 3.2 | 0.00 | 0.00 | 0.00 | 83 | 1014.4 | |
| 20260507063518 | 10 | 203 | 1.6 | 3.2 | 0.00 | 0.00 | 0.00 | 85 | 1014.1 |
| 20260507062540 | 10 | 203 | 1.6 | 3.2 | 0.00 | 0.00 | 0.00 | 87 | 1013.9 |
| 20260507061538 | 8 | 203 | 1.6 | 3.2 | 0.00 | 0.00 | 0.00 | 90 | 1013.9 |
| 20260507060539 | 8 | 315 | 1.6 | 3.2 | 0.00 | 0.00 | 0.00 | 90 | 1013.9 |
| 20260507055519 | 7 | 315 | 4.8 | 6.4 | 0.00 | 0.00 | 0.00 | 91 | 1013.8 |
| 20260507054518 | 7 | 315 | 3.2 | 6.4 | 0.00 | 0.00 | 0.00 | 92 | 1013.9 |
| 20260507053518 | 7 | 293 | 1.6 | 4.8 | 0.00 | 0.00 | 0.00 | 92 | 1013.8 |
| 20260507052518 | 6 | 293 | 1.6 | 4.8 | 0.00 | 0.00 | 0.00 | 92 | 1013.7 |
| 20260507051518 | 6 | 293 | 1.6 | 4.8 | 0.00 | 0.00 | 0.00 | 92 | 1013.5 |
| 20260507050518 | 6 | 293 | 1.6 | 4.8 | 0.00 | 0.00 | 0.00 | 92 | 1013.6 |
| 20260507045518 | 6 | 293 | 1.6 | 4.8 | 0.00 | 0.00 | 0.00 | 91 | 1013.4 |
| 20260507044518 | 6 | 315 | 3.2 | 6.4 | 0.00 | 0.00 | 0.00 | 92 | 1013.4 |
| 20260507043517 | 7 | 293 | 3.2 | 4.8 | 0.00 | 0.00 | 0.00 | 91 | 1013.5 |
| 20260507042538 | 7 | 0.0 | 3.2 | 0.00 | 0.00 | 0.00 | 91 | 1013.5 | |
| 20260507041538 | 7 | 293 | 1.6 | 3.2 | 0.00 | 0.00 | 0.00 | 91 | 1013.5 |
| 20260507040518 | 7 | 0.0 | 1.6 | 0.00 | 0.00 | 0.00 | 91 | 1013.6 | |
| 20260507035517 | 7 | 293 | 1.6 | 3.2 | 0.00 | 0.00 | 0.00 | 91 | 1013.5 |
| 20260507034518 | 7 | 293 | 1.6 | 4.8 | 0.00 | 0.00 | 0.00 | 91 | 1013.4 |
| 20260507033517 | 7 | 315 | 3.2 | 4.8 | 0.00 | 0.00 | 0.00 | 91 | 1013.5 |
| 20260507032518 | 7 | 315 | 3.2 | 6.4 | 0.00 | 0.00 | 0.00 | 91 | 1013.6 |
| 20260507031518 | 7 | 315 | 1.6 | 4.8 | 0.00 | 0.00 | 0.00 | 91 | 1013.5 |
| 20260507030518 | 7 | 315 | 1.6 | 3.2 | 0.00 | 0.00 | 0.00 | 91 | 1013.5 |
| 20260507025518 | 7 | 315 | 1.6 | 3.2 | 0.00 | 0.00 | 0.00 | 91 | 1013.4 |
| 20260507024538 | 7 | 293 | 3.2 | 6.4 | 0.00 | 0.00 | 0.00 | 91 | 1013.3 |
| 20260507023518 | 7 | 315 | 3.2 | 6.4 | 0.00 | 0.00 | 0.00 | 91 | 1013.3 |
| 20260507022517 | 7 | 315 | 4.8 | 8.0 | 0.00 | 0.00 | 0.00 | 91 | 1013.3 |
| 20260507021538 | 7 | 293 | 3.2 | 6.4 | 0.00 | 0.00 | 0.00 | 91 | 1013.4 |
| 20260507020517 | 7 | 293 | 4.8 | 6.4 | 0.00 | 0.00 | 0.00 | 90 | 1013.4 |
| 20260507015517 | 7 | 293 | 3.2 | 9.7 | 0.00 | 0.00 | 0.00 | 90 | 1013.5 |